createdAt,value
2022-10-05T00:01:31.061Z,2.90
2022-10-05T00:04:15.357Z,2.45
2022-10-05T00:06:44.338Z,3.30
2022-10-05T00:09:16.052Z,2.83
2022-10-05T00:11:43.790Z,2.50
2022-10-05T00:14:35.285Z,3.10
2022-10-05T00:17:04.549Z,2.60
2022-10-05T00:19:38.280Z,2.42
2022-10-05T00:22:28.951Z,2.55
2022-10-05T00:24:58.890Z,2.55
2022-10-05T00:27:37.619Z,2.28
2022-10-05T00:30:23.408Z,2.33
2022-10-05T00:32:50.330Z,2.15
2022-10-05T00:35:18.819Z,2.47
2022-10-05T00:37:47.149Z,2.75
2022-10-05T00:40:35.404Z,2.28
2022-10-05T00:43:17.847Z,2.17
2022-10-05T00:45:51.610Z,2.17
2022-10-05T00:48:34.654Z,2.50
2022-10-05T00:51:24.855Z,2.45
2022-10-05T00:54:00.868Z,2.22
2022-10-05T00:56:33.172Z,1.83
2022-10-05T00:59:10.514Z,2.08
2022-10-05T01:01:44.887Z,1.70
2022-10-05T01:04:39.897Z,1.80
2022-10-05T01:07:43.767Z,1.10
2022-10-05T01:10:30.728Z,2.13
2022-10-05T01:13:17.277Z,1.10
2022-10-05T01:16:02.482Z,1.10
2022-10-05T01:18:54.298Z,1.08
2022-10-05T01:21:23.634Z,0.98
2022-10-05T01:23:58.979Z,1.00
2022-10-05T01:26:42.345Z,0.93
2022-10-05T01:29:30.173Z,0.90
2022-10-05T01:32:02.692Z,0.90
2022-10-05T01:34:41.301Z,1.05
2022-10-05T01:37:19.267Z,1.05
2022-10-05T01:40:14.069Z,0.70
2022-10-05T01:42:56.037Z,1.10
2022-10-05T01:45:40.426Z,0.90
2022-10-05T01:48:22.092Z,0.80
2022-10-05T01:51:19.087Z,0.80
2022-10-05T01:53:51.593Z,1.20
2022-10-05T01:56:39.725Z,0.93
2022-10-05T01:59:18.967Z,0.70
2022-10-05T02:01:58.620Z,1.13
2022-10-05T02:07:29.965Z,1.10
2022-10-05T02:10:25.737Z,1.13
2022-10-05T02:15:33.685Z,1.02
2022-10-05T02:18:07.867Z,0.82
2022-10-05T02:20:37.552Z,1.50
2022-10-05T02:23:09.423Z,1.10
2022-10-05T02:25:40.219Z,1.60
2022-10-05T02:28:15.568Z,1.13
2022-10-05T02:30:52.855Z,1.30
2022-10-05T02:33:26.067Z,1.60
2022-10-05T02:35:52.949Z,1.63
2022-10-05T02:38:41.755Z,1.80
2022-10-05T02:41:26.940Z,1.80
2022-10-05T02:44:11.304Z,2.00
2022-10-05T02:47:00.828Z,3.00
2022-10-05T02:50:05.938Z,2.20
2022-10-05T02:52:54.440Z,2.35
2022-10-05T02:55:27.013Z,2.42
2022-10-05T02:58:05.961Z,3.15
2022-10-05T03:00:40.066Z,2.92
2022-10-05T03:03:15.924Z,3.50
2022-10-05T03:05:53.595Z,3.00
2022-10-05T03:08:31.821Z,3.42
2022-10-05T03:11:18.517Z,3.20
2022-10-05T03:13:56.553Z,3.85
2022-10-05T03:16:50.932Z,3.05
2022-10-05T03:19:46.537Z,3.97
2022-10-05T03:22:28.088Z,3.80
2022-10-05T03:24:55.103Z,4.47
2022-10-05T03:27:40.658Z,3.83
2022-10-05T03:30:16.370Z,3.90
2022-10-05T03:32:51.941Z,3.88
2022-10-05T03:35:28.082Z,3.92
2022-10-05T03:38:16.472Z,4.30
2022-10-05T03:40:52.052Z,4.00
2022-10-05T03:43:43.530Z,3.83
2022-10-05T03:46:18.715Z,3.70
2022-10-05T03:48:58.312Z,4.18
2022-10-05T03:51:31.792Z,3.47
2022-10-05T03:54:10.207Z,4.60
2022-10-05T03:56:44.327Z,4.03
2022-10-05T03:59:19.628Z,3.33
2022-10-05T04:04:34.931Z,3.33
2022-10-05T04:07:02.235Z,4.07
2022-10-05T04:09:40.679Z,3.00
2022-10-05T04:12:33.390Z,3.80
2022-10-05T04:15:07.034Z,4.32
2022-10-05T04:17:40.568Z,3.25
2022-10-05T04:20:21.111Z,3.60
2022-10-05T04:23:05.041Z,3.45
2022-10-05T04:25:46.241Z,3.25
2022-10-05T04:28:26.996Z,3.13
2022-10-05T04:30:56.335Z,2.80
2022-10-05T04:33:22.978Z,2.90
2022-10-05T04:35:52.396Z,3.05
2022-10-05T04:38:43.716Z,2.20
2022-10-05T04:41:37.420Z,3.70
2022-10-05T04:44:06.906Z,2.63
2022-10-05T04:47:10.769Z,2.38
2022-10-05T04:49:49.417Z,2.50
2022-10-05T04:52:51.116Z,1.63
2022-10-05T04:55:20.628Z,1.75
2022-10-05T04:58:02.296Z,1.90
2022-10-05T05:00:42.183Z,1.80
2022-10-05T05:03:30.033Z,1.60
2022-10-05T05:06:17.344Z,1.65
2022-10-05T05:09:18.301Z,1.42
2022-10-05T05:12:12.911Z,2.15
2022-10-05T05:14:57.444Z,1.65
2022-10-05T05:17:33.068Z,1.37
2022-10-05T05:20:10.464Z,1.30
2022-10-05T05:22:53.370Z,1.40
2022-10-05T05:25:43.956Z,1.17
2022-10-05T05:28:29.357Z,1.27
2022-10-05T05:31:05.004Z,1.33
2022-10-05T05:34:07.032Z,1.30
2022-10-05T05:36:50.606Z,1.05
2022-10-05T05:39:27.772Z,1.10
2022-10-05T05:42:23.481Z,0.88
2022-10-05T05:47:35.282Z,0.75
2022-10-05T05:50:10.976Z,1.00
2022-10-05T05:52:45.671Z,0.70
2022-10-05T05:55:15.458Z,0.90
2022-10-05T05:57:50.410Z,0.60
2022-10-05T06:03:12.428Z,0.77
2022-10-05T06:05:50.066Z,0.73
2022-10-05T06:08:41.952Z,1.00
2022-10-05T06:11:35.800Z,0.68
2022-10-05T06:14:10.545Z,0.65
2022-10-05T06:16:46.426Z,0.40
2022-10-05T06:19:20.443Z,0.68
2022-10-05T06:22:25.417Z,0.85
2022-10-05T06:25:18.923Z,0.38
2022-10-05T06:28:14.256Z,0.45
2022-10-05T06:31:11.185Z,0.50
2022-10-05T06:33:46.517Z,0.30
2022-10-05T06:36:37.389Z,0.75
2022-10-05T06:39:12.991Z,0.45
2022-10-05T06:41:48.578Z,0.40
2022-10-05T06:44:25.914Z,0.40
2022-10-05T06:47:10.725Z,0.30
2022-10-05T06:49:42.952Z,0.60
2022-10-05T06:52:44.801Z,0.40
2022-10-05T06:55:28.117Z,0.80
2022-10-05T06:58:32.095Z,0.40
2022-10-05T07:01:05.092Z,0.50
2022-10-05T07:04:14.649Z,0.30
2022-10-05T07:06:51.045Z,0.65
2022-10-05T07:09:24.184Z,0.50
2022-10-05T07:12:06.339Z,0.38
2022-10-05T07:15:06.914Z,0.50
2022-10-05T07:17:44.260Z,0.57
2022-10-05T07:20:16.836Z,0.60
2022-10-05T07:23:12.014Z,0.40
2022-10-05T07:25:50.364Z,0.60
2022-10-05T07:28:33.218Z,0.52
2022-10-05T07:31:26.230Z,0.60
2022-10-05T07:34:04.959Z,0.98
2022-10-05T07:37:13.956Z,0.95
2022-10-05T07:40:00.552Z,0.60
2022-10-05T07:43:00.008Z,0.60
2022-10-05T07:45:28.823Z,0.63
2022-10-05T07:47:59.471Z,0.60
2022-10-05T07:50:31.484Z,2.22
2022-10-05T07:53:02.598Z,0.75
2022-10-05T07:55:38.849Z,0.70
2022-10-05T07:58:33.104Z,0.85
2022-10-05T08:01:22.120Z,0.80
2022-10-05T08:04:12.196Z,0.60
2022-10-05T08:06:49.920Z,0.80
2022-10-05T08:09:26.166Z,0.60
2022-10-05T08:12:20.602Z,0.80
2022-10-05T08:15:16.464Z,1.00
2022-10-05T08:17:53.008Z,0.73
2022-10-05T08:20:19.443Z,0.70
2022-10-05T08:23:06.551Z,0.88
2022-10-05T08:25:46.460Z,0.80
2022-10-05T08:28:33.333Z,0.90
2022-10-05T08:31:19.097Z,0.85
2022-10-05T08:34:11.963Z,1.00
2022-10-05T08:36:55.798Z,0.80
2022-10-05T08:39:27.064Z,1.10
2022-10-05T08:42:26.271Z,0.95
2022-10-05T08:45:12.784Z,0.70
2022-10-05T08:48:04.791Z,1.00
2022-10-05T08:50:56.898Z,1.00
2022-10-05T08:53:29.116Z,1.08
2022-10-05T08:56:29.012Z,1.10
2022-10-05T08:59:15.727Z,1.20
2022-10-05T09:02:00.423Z,1.10
2022-10-05T09:07:23.443Z,1.17
2022-10-05T09:10:33.888Z,1.27
2022-10-05T09:13:38.983Z,0.90
2022-10-05T09:16:30.068Z,1.25
2022-10-05T09:19:34.316Z,1.10
2022-10-05T09:22:34.929Z,1.45
2022-10-05T09:25:34.753Z,1.00
2022-10-05T09:28:22.344Z,1.20
2022-10-05T09:30:56.514Z,1.50
2022-10-05T09:33:37.991Z,1.02
2022-10-05T09:36:26.267Z,0.90
2022-10-05T09:39:01.603Z,1.02
2022-10-05T09:41:36.953Z,0.70
2022-10-05T09:44:22.168Z,0.70
2022-10-05T09:47:07.432Z,0.70
2022-10-05T09:52:29.309Z,0.70
2022-10-05T09:55:16.066Z,0.70
2022-10-05T09:58:12.485Z,0.70
2022-10-05T10:01:09.407Z,0.80
2022-10-05T10:04:13.898Z,0.95
2022-10-05T10:06:54.552Z,0.85
2022-10-05T10:09:42.575Z,0.90
2022-10-05T10:12:18.417Z,1.13
2022-10-05T10:14:53.891Z,0.90
2022-10-05T10:17:44.111Z,0.85
2022-10-05T10:20:35.518Z,1.08
2022-10-05T10:23:14.235Z,0.70
2022-10-05T10:25:59.504Z,0.65
2022-10-05T10:31:24.794Z,0.70
2022-10-05T10:34:08.294Z,0.50
2022-10-05T10:36:59.965Z,0.95
2022-10-05T10:39:45.241Z,0.60
2022-10-05T10:45:07.536Z,0.87
2022-10-05T10:47:50.065Z,1.20
2022-10-05T10:50:38.373Z,1.05
2022-10-05T10:53:19.866Z,1.35
2022-10-05T10:56:14.495Z,0.85
2022-10-05T10:59:18.399Z,1.02
2022-10-05T11:02:05.704Z,0.90
2022-10-05T11:05:06.190Z,0.80
2022-10-05T11:07:43.545Z,0.70
2022-10-05T11:10:18.429Z,0.80
2022-10-05T11:15:37.918Z,0.73
2022-10-05T11:18:32.026Z,1.00
2022-10-05T11:21:13.497Z,1.20
2022-10-05T11:24:11.051Z,1.10
2022-10-05T11:27:10.082Z,0.90
2022-10-05T11:30:06.012Z,0.90
2022-10-05T11:33:01.390Z,1.00
2022-10-05T11:35:41.390Z,0.80
2022-10-05T11:38:13.671Z,0.80
2022-10-05T11:41:02.206Z,1.13
2022-10-05T11:44:06.220Z,1.33
2022-10-05T11:46:49.178Z,1.20
2022-10-05T11:49:28.570Z,1.33
2022-10-05T11:52:13.054Z,1.35
2022-10-05T11:55:12.008Z,1.47
2022-10-05T11:57:57.640Z,1.27
2022-10-05T12:00:40.376Z,1.10
2022-10-05T12:03:32.131Z,1.35
2022-10-05T12:06:01.566Z,1.20
2022-10-05T12:09:20.530Z,1.38
2022-10-05T12:12:15.820Z,1.20
2022-10-05T12:15:03.446Z,1.30
2022-10-05T12:17:38.712Z,0.95
2022-10-05T12:20:30.433Z,0.93
2022-10-05T12:23:13.643Z,1.13
2022-10-05T12:25:56.747Z,1.95
2022-10-05T12:28:33.575Z,1.15
2022-10-05T12:31:25.050Z,1.10
2022-10-05T12:34:03.949Z,0.93
2022-10-05T12:37:03.607Z,0.95
2022-10-05T12:39:42.039Z,1.20
2022-10-05T12:42:24.071Z,1.13
2022-10-05T12:45:13.258Z,1.25
2022-10-05T12:47:53.471Z,1.05
2022-10-05T12:50:28.247Z,1.08
2022-10-05T12:53:22.413Z,1.00
2022-10-05T12:56:08.347Z,1.30
2022-10-05T12:58:46.824Z,0.85
2022-10-05T13:01:28.968Z,1.17
2022-10-05T13:04:14.818Z,1.30
2022-10-05T13:07:08.955Z,1.27
2022-10-05T13:09:43.279Z,1.30
2022-10-05T13:12:21.217Z,0.93
2022-10-05T13:15:02.792Z,0.80
2022-10-05T13:17:52.063Z,0.98
2022-10-05T13:20:29.562Z,1.10
2022-10-05T13:23:18.095Z,1.10
2022-10-05T13:26:03.210Z,1.27
2022-10-05T13:28:39.147Z,1.15
2022-10-05T13:31:11.952Z,1.70
2022-10-05T13:34:06.746Z,1.05
2022-10-05T13:36:48.535Z,1.13
2022-10-05T13:39:27.762Z,1.23
2022-10-05T13:42:05.041Z,1.08
2022-10-05T13:44:37.602Z,1.10
2022-10-05T13:47:45.794Z,1.10
2022-10-05T13:50:24.827Z,1.00
2022-10-05T13:53:13.849Z,1.30
2022-10-05T13:56:10.515Z,0.98
2022-10-05T13:58:47.577Z,1.17
2022-10-05T14:01:22.507Z,1.10
2022-10-05T14:06:32.576Z,1.25
2022-10-05T14:08:59.880Z,1.25
2022-10-05T14:11:37.036Z,1.30
2022-10-05T14:14:15.186Z,1.25
2022-10-05T14:16:51.547Z,1.35
2022-10-05T14:19:32.170Z,1.45
2022-10-05T14:22:10.333Z,1.20
2022-10-05T14:24:46.539Z,0.82
2022-10-05T14:27:24.006Z,0.90
2022-10-05T14:30:20.410Z,0.98
2022-10-05T14:32:57.255Z,1.15
2022-10-05T14:35:28.134Z,0.88
2022-10-05T14:38:01.073Z,0.93
2022-10-05T14:40:37.286Z,0.77
2022-10-05T14:43:16.056Z,0.85
2022-10-05T14:46:03.367Z,0.90
2022-10-05T14:48:42.420Z,0.98
2022-10-05T14:51:25.331Z,1.00
2022-10-05T14:54:14.927Z,0.50
2022-10-05T14:57:25.223Z,0.73
2022-10-05T15:00:04.083Z,0.68
2022-10-05T15:02:47.961Z,1.27
2022-10-05T15:05:20.934Z,0.82
2022-10-05T15:07:49.808Z,0.82
2022-10-05T15:10:31.146Z,1.25
2022-10-05T15:13:11.940Z,0.88
2022-10-05T15:15:54.699Z,1.08
2022-10-05T15:18:34.728Z,1.13
2022-10-05T15:21:26.475Z,0.85
2022-10-05T15:24:14.427Z,1.75
2022-10-05T15:27:00.718Z,0.80
2022-10-05T15:29:52.029Z,1.00
2022-10-05T15:32:30.050Z,1.65
2022-10-05T15:35:03.990Z,0.98
2022-10-05T15:38:19.517Z,1.35
2022-10-05T15:41:09.805Z,1.30
2022-10-05T15:43:42.123Z,0.77
2022-10-05T15:46:15.355Z,1.48
2022-10-05T15:48:48.491Z,0.60
2022-10-05T15:51:45.155Z,0.98
2022-10-05T15:54:30.334Z,0.80
2022-10-05T15:57:10.624Z,0.75
2022-10-05T15:59:54.955Z,0.82
2022-10-05T16:02:29.830Z,1.88
2022-10-05T16:08:02.042Z,0.57
2022-10-05T16:10:34.099Z,0.93
2022-10-05T16:13:16.903Z,1.08
2022-10-05T16:15:56.008Z,0.90
2022-10-05T16:18:45.607Z,0.57
2022-10-05T16:21:29.619Z,0.82
2022-10-05T16:23:56.085Z,0.90
2022-10-05T16:26:55.403Z,0.70
2022-10-05T16:29:39.352Z,0.77
2022-10-05T16:32:13.950Z,0.60
2022-10-05T16:34:54.216Z,1.63
2022-10-05T16:37:32.863Z,0.90
2022-10-05T16:40:05.361Z,1.20
2022-10-05T16:42:54.344Z,0.90
2022-10-05T16:45:45.443Z,0.77
2022-10-05T16:48:21.085Z,1.08
2022-10-05T16:51:26.272Z,0.68
2022-10-05T16:54:38.438Z,0.77
2022-10-05T16:57:19.920Z,1.05
2022-10-05T17:00:16.088Z,1.00
2022-10-05T17:03:01.530Z,0.90
2022-10-05T17:08:11.278Z,0.88
2022-10-05T17:10:57.231Z,0.80
2022-10-05T17:13:36.844Z,0.90
2022-10-05T17:16:25.808Z,0.98
2022-10-05T17:19:04.402Z,0.77
2022-10-05T17:21:38.926Z,1.00
2022-10-05T17:24:38.257Z,0.95
2022-10-05T17:27:20.375Z,0.90
2022-10-05T17:29:55.964Z,0.63
2022-10-05T17:32:22.406Z,1.67
2022-10-05T17:35:01.363Z,0.90
2022-10-05T17:37:27.802Z,1.00
2022-10-05T17:39:56.185Z,1.20
2022-10-05T17:42:34.214Z,0.80
2022-10-05T17:45:20.712Z,2.55
2022-10-05T17:48:04.956Z,1.00
2022-10-05T17:51:02.145Z,1.05
2022-10-05T17:54:05.243Z,1.38
2022-10-05T17:56:47.152Z,0.90
2022-10-05T17:59:52.197Z,0.90
2022-10-05T18:02:39.905Z,1.20
2022-10-05T18:05:12.582Z,1.10
2022-10-05T18:07:50.293Z,0.80
2022-10-05T18:10:29.072Z,1.00
2022-10-05T18:12:58.665Z,1.15
2022-10-05T18:15:25.131Z,1.10
2022-10-05T18:17:57.410Z,0.75
2022-10-05T18:20:31.812Z,1.13
2022-10-05T18:23:07.337Z,1.20
2022-10-05T18:25:38.412Z,1.75
2022-10-05T18:28:20.120Z,1.20
2022-10-05T18:31:08.901Z,2.35
2022-10-05T18:33:44.644Z,1.40
2022-10-05T18:36:20.497Z,1.00
2022-10-05T18:39:26.838Z,1.10
2022-10-05T18:42:41.889Z,1.50
2022-10-05T18:45:45.823Z,1.05
2022-10-05T18:48:26.456Z,1.48
2022-10-05T18:51:04.670Z,1.20
2022-10-05T18:54:15.654Z,1.38
2022-10-05T18:56:45.579Z,1.48
2022-10-05T18:59:36.491Z,1.30
2022-10-05T19:02:36.552Z,1.00
2022-10-05T19:05:23.825Z,1.30
2022-10-05T19:08:17.438Z,2.10
2022-10-05T19:10:48.434Z,1.35
2022-10-05T19:13:39.649Z,1.48
2022-10-05T19:16:15.351Z,2.00
2022-10-05T19:19:01.315Z,1.98
2022-10-05T19:21:41.403Z,1.67
2022-10-05T19:24:40.623Z,0.90
2022-10-05T19:27:11.786Z,0.50
2022-10-05T19:30:02.153Z,0.55
2022-10-05T19:32:48.203Z,0.60
2022-10-05T19:35:30.280Z,0.30
2022-10-05T19:41:22.507Z,0.30
2022-10-05T19:44:06.079Z,0.60
2022-10-05T19:47:06.911Z,0.38
2022-10-05T19:49:37.491Z,0.60
2022-10-05T19:52:10.861Z,0.70
2022-10-05T19:54:37.751Z,0.68
2022-10-05T19:57:17.020Z,0.77
2022-10-05T19:59:47.853Z,0.60
2022-10-05T20:02:17.505Z,0.68
2022-10-05T20:04:49.340Z,0.60
2022-10-05T20:07:20.783Z,0.63
2022-10-05T20:10:14.353Z,0.77
2022-10-05T20:12:51.339Z,0.82
2022-10-05T20:15:48.185Z,1.05
2022-10-05T20:19:01.428Z,0.47
2022-10-05T20:21:47.922Z,0.60
2022-10-05T20:24:15.865Z,1.23
2022-10-05T20:27:03.676Z,1.17
2022-10-05T20:29:32.413Z,0.80
2022-10-05T20:31:59.809Z,0.90
2022-10-05T20:34:26.335Z,0.90
2022-10-05T20:36:53.381Z,0.90
2022-10-05T20:39:21.332Z,0.70
2022-10-05T20:41:47.902Z,2.35
2022-10-05T20:44:14.950Z,0.80
2022-10-05T20:46:42.154Z,0.50
2022-10-05T20:49:10.970Z,0.93
2022-10-05T20:51:39.227Z,0.52
2022-10-05T20:54:06.978Z,1.45
2022-10-05T20:56:33.883Z,0.63
2022-10-05T20:59:00.437Z,0.70
2022-10-05T21:01:27.777Z,0.70
2022-10-05T21:03:55.112Z,0.30
2022-10-05T21:06:22.226Z,0.70
2022-10-05T21:08:51.353Z,0.52
2022-10-05T21:11:17.850Z,0.50
2022-10-05T21:13:45.422Z,0.70
2022-10-05T21:16:16.824Z,0.38
2022-10-05T21:18:47.788Z,0.47
2022-10-05T21:21:18.548Z,0.30
2022-10-05T21:23:46.492Z,0.30
2022-10-05T21:26:13.931Z,1.15
2022-10-05T21:28:41.507Z,0.40
2022-10-05T21:31:09.003Z,0.40
2022-10-05T21:33:35.944Z,0.52
2022-10-05T21:36:02.789Z,0.38
2022-10-05T21:38:30.433Z,0.22
2022-10-05T21:40:57.289Z,0.20
2022-10-05T21:43:24.053Z,0.40
2022-10-05T21:45:50.714Z,0.22
2022-10-05T21:48:18.169Z,0.55
2022-10-05T21:50:45.462Z,0.40
2022-10-05T21:53:14.632Z,0.38
2022-10-05T21:55:44.211Z,0.20
2022-10-05T21:58:12.853Z,0.50
2022-10-05T22:00:40.386Z,0.15
2022-10-05T22:03:08.487Z,0.32
2022-10-05T22:05:35.177Z,0.20
2022-10-05T22:08:01.747Z,1.05
2022-10-05T22:10:29.062Z,0.32
2022-10-05T22:13:03.883Z,0.20
2022-10-05T22:15:31.631Z,0.32
2022-10-05T22:17:59.698Z,0.20
2022-10-05T22:20:26.729Z,0.40
2022-10-05T22:22:54.021Z,1.38
2022-10-05T22:25:21.560Z,0.22
2022-10-05T22:27:49.687Z,0.35
2022-10-05T22:30:16.378Z,0.30
2022-10-05T22:32:43.785Z,0.28
2022-10-05T22:35:11.664Z,0.32
2022-10-05T22:37:38.797Z,0.40
2022-10-05T22:40:07.434Z,0.60
2022-10-05T22:42:34.425Z,0.60
2022-10-05T22:45:00.888Z,1.17
2022-10-05T22:47:27.420Z,0.30
2022-10-05T22:49:53.922Z,0.43
2022-10-05T22:52:20.378Z,0.55
2022-10-05T22:54:46.888Z,0.40
2022-10-05T22:57:13.392Z,0.55
2022-10-05T22:59:39.896Z,0.47
2022-10-05T23:02:06.863Z,0.55
2022-10-05T23:04:33.407Z,1.40
2022-10-05T23:06:59.919Z,0.68
2022-10-05T23:09:26.585Z,0.60
2022-10-05T23:11:54.419Z,0.85
2022-10-05T23:14:21.606Z,0.70
2022-10-05T23:16:48.271Z,0.82
2022-10-05T23:19:14.842Z,0.63
2022-10-05T23:21:41.871Z,0.68
2022-10-05T23:24:08.563Z,1.17
2022-10-05T23:26:35.386Z,1.85
2022-10-05T23:29:01.818Z,0.93
2022-10-05T23:31:31.140Z,1.38
2022-10-05T23:33:57.697Z,2.40
2022-10-05T23:36:32.227Z,1.30
2022-10-05T23:38:59.156Z,1.48
2022-10-05T23:41:25.936Z,0.90
2022-10-05T23:43:54.729Z,1.27
2022-10-05T23:46:21.840Z,1.30
2022-10-05T23:48:50.474Z,1.40
2022-10-05T23:51:17.647Z,1.58
2022-10-05T23:53:45.248Z,1.88
2022-10-05T23:56:12.936Z,0.90
2022-10-05T23:58:40.210Z,0.95
